createdAt,value
2022-08-17T00:00:42.900Z,4.78
2022-08-17T00:03:06.025Z,4.80
2022-08-17T00:05:58.543Z,4.93
2022-08-17T00:08:38.697Z,4.45
2022-08-17T00:11:09.004Z,4.65
2022-08-17T00:13:45.187Z,4.50
2022-08-17T00:16:22.589Z,4.85
2022-08-17T00:19:13.554Z,5.13
2022-08-17T00:22:30.963Z,4.07
2022-08-17T00:24:33.958Z,4.07
2022-08-17T00:27:00.750Z,4.55
2022-08-17T00:29:27.558Z,5.05
2022-08-17T00:31:54.349Z,4.28
2022-08-17T00:34:21.133Z,4.28
2022-08-17T00:36:48.065Z,4.28
2022-08-17T00:39:14.928Z,4.20
2022-08-17T00:41:42.503Z,4.75
2022-08-17T00:44:09.840Z,4.05
2022-08-17T00:46:41.127Z,5.55
2022-08-17T00:49:10.743Z,5.03
2022-08-17T00:52:01.050Z,4.40
2022-08-17T00:54:41.680Z,4.05
2022-08-17T00:57:25.335Z,4.20
2022-08-17T01:00:05.298Z,3.85
2022-08-17T01:02:42.022Z,4.32
2022-08-17T01:05:19.053Z,4.70
2022-08-17T01:07:48.494Z,4.18
2022-08-17T01:10:59.503Z,3.95
2022-08-17T01:13:07.533Z,4.40
2022-08-17T01:15:41.650Z,4.07
2022-08-17T01:18:14.577Z,4.38
2022-08-17T01:20:51.731Z,4.45
2022-08-17T01:23:21.813Z,4.60
2022-08-17T01:25:55.826Z,4.45
2022-08-17T01:28:53.400Z,5.07
2022-08-17T01:31:11.667Z,6.07
2022-08-17T01:33:38.783Z,4.28
2022-08-17T01:36:07.324Z,4.70
2022-08-17T01:38:37.024Z,4.45
2022-08-17T01:41:10.709Z,4.55
2022-08-17T01:43:48.091Z,4.43
2022-08-17T01:46:27.708Z,4.13
2022-08-17T01:48:57.671Z,4.82
2022-08-17T01:51:33.208Z,4.97
2022-08-17T01:54:09.277Z,4.57
2022-08-17T01:56:41.208Z,4.70
2022-08-17T01:59:08.033Z,4.90
2022-08-17T02:01:36.013Z,4.80
2022-08-17T02:04:04.261Z,4.50
2022-08-17T02:06:52.675Z,4.45
2022-08-17T02:09:25.584Z,4.80
2022-08-17T02:11:56.761Z,4.85
2022-08-17T02:14:25.351Z,4.20
2022-08-17T02:16:53.182Z,4.40
2022-08-17T02:19:21.966Z,4.63
2022-08-17T02:21:51.618Z,4.78
2022-08-17T02:25:00.454Z,4.18
2022-08-17T02:27:16.726Z,4.72
2022-08-17T02:29:43.563Z,3.95
2022-08-17T02:32:28.227Z,5.03
2022-08-17T02:34:57.242Z,4.70
2022-08-17T02:37:25.656Z,4.75
2022-08-17T02:39:52.847Z,4.60
2022-08-17T02:42:27.909Z,4.68
2022-08-17T02:44:54.989Z,4.43
2022-08-17T02:47:21.804Z,4.70
2022-08-17T02:49:55.843Z,4.32
2022-08-17T02:52:43.079Z,3.83
2022-08-17T02:55:29.395Z,4.50
2022-08-17T02:57:57.069Z,4.47
2022-08-17T03:00:34.121Z,4.32
2022-08-17T03:03:04.614Z,4.00
2022-08-17T03:05:36.184Z,3.65
2022-08-17T03:08:04.586Z,5.05
2022-08-17T03:10:31.539Z,3.95
2022-08-17T03:12:59.608Z,4.65
2022-08-17T03:15:31.578Z,4.82
2022-08-17T03:17:59.798Z,4.40
2022-08-17T03:20:29.474Z,4.60
2022-08-17T03:23:01.882Z,4.43
2022-08-17T03:25:36.158Z,4.35
2022-08-17T03:28:05.470Z,4.35
2022-08-17T03:30:33.224Z,4.32
2022-08-17T03:33:04.032Z,5.05
2022-08-17T03:35:34.298Z,3.92
2022-08-17T03:38:01.905Z,4.78
2022-08-17T03:40:55.841Z,4.72
2022-08-17T03:43:18.497Z,4.28
2022-08-17T03:46:03.856Z,4.35
2022-08-17T03:48:51.404Z,4.28
2022-08-17T03:51:42.336Z,4.38
2022-08-17T03:54:29.484Z,4.03
2022-08-17T03:57:09.830Z,4.45
2022-08-17T03:59:37.582Z,4.50
2022-08-17T04:02:11.254Z,4.13
2022-08-17T04:04:39.330Z,4.22
2022-08-17T04:07:07.582Z,4.18
2022-08-17T04:09:34.902Z,3.95
2022-08-17T04:12:04.596Z,4.38
2022-08-17T04:14:52.659Z,4.25
2022-08-17T04:17:29.015Z,4.30
2022-08-17T04:19:56.905Z,4.28
2022-08-17T04:22:30.070Z,5.07
2022-08-17T04:25:20.358Z,4.43
2022-08-17T04:27:48.803Z,4.78
2022-08-17T04:30:16.012Z,4.35
2022-08-17T04:33:04.386Z,4.75
2022-08-17T04:35:41.950Z,8.35
2022-08-17T04:38:18.605Z,10.23
2022-08-17T04:41:04.285Z,6.93
2022-08-17T04:43:34.156Z,5.00
2022-08-17T04:46:08.180Z,4.40
2022-08-17T04:48:42.784Z,4.40
2022-08-17T04:51:17.692Z,4.82
2022-08-17T04:53:54.172Z,4.88
2022-08-17T04:56:22.471Z,5.00
2022-08-17T04:58:53.097Z,5.32
2022-08-17T05:01:23.664Z,4.75
2022-08-17T05:03:53.961Z,4.50
2022-08-17T05:06:21.318Z,5.15
2022-08-17T05:08:48.266Z,4.43
2022-08-17T05:11:15.268Z,5.03
2022-08-17T05:13:42.311Z,5.15
2022-08-17T05:16:09.287Z,6.10
2022-08-17T05:18:37.367Z,5.38
2022-08-17T05:21:04.838Z,4.53
2022-08-17T05:23:41.808Z,4.50
2022-08-17T05:26:26.416Z,5.20
2022-08-17T05:28:57.117Z,5.68
2022-08-17T05:31:26.936Z,5.00
2022-08-17T05:33:53.878Z,4.75
2022-08-17T05:36:41.831Z,4.45
2022-08-17T05:39:07.564Z,4.38
2022-08-17T05:41:34.409Z,5.18
2022-08-17T05:44:05.389Z,4.85
2022-08-17T05:46:40.208Z,4.28
2022-08-17T05:49:08.589Z,4.43
2022-08-17T05:51:53.410Z,4.95
2022-08-17T05:55:00.841Z,4.55
2022-08-17T05:57:43.534Z,4.57
2022-08-17T06:00:20.363Z,4.60
2022-08-17T06:03:14.306Z,3.92
2022-08-17T06:06:39.994Z,4.28
2022-08-17T06:10:02.446Z,4.32
2022-08-17T06:12:56.889Z,4.55
2022-08-17T06:15:31.411Z,4.35
2022-08-17T06:18:02.553Z,4.35
2022-08-17T06:20:48.939Z,5.32
2022-08-17T06:23:48.365Z,5.07
2022-08-17T06:26:27.617Z,5.00
2022-08-17T06:29:27.145Z,5.05
2022-08-17T06:31:53.935Z,4.57
2022-08-17T06:34:21.834Z,3.90
2022-08-17T06:37:09.376Z,4.97
2022-08-17T06:40:23.517Z,4.95
2022-08-17T06:43:05.188Z,4.00
2022-08-17T06:45:49.393Z,4.93
2022-08-17T06:48:40.947Z,4.45
2022-08-17T06:51:39.638Z,5.00
2022-08-17T06:54:18.809Z,4.57
2022-08-17T06:56:55.208Z,4.50
2022-08-17T06:59:55.258Z,4.20
2022-08-17T07:02:56.298Z,4.78
2022-08-17T07:05:39.189Z,4.50
2022-08-17T07:10:58.282Z,4.13
2022-08-17T07:14:22.513Z,3.63
2022-08-17T07:19:32.350Z,3.00
2022-08-17T07:22:23.942Z,3.35
2022-08-17T07:24:58.466Z,2.88
2022-08-17T07:27:45.847Z,3.28
2022-08-17T07:30:52.584Z,3.00
2022-08-17T07:33:25.829Z,3.08
2022-08-17T07:35:53.704Z,2.47
2022-08-17T07:38:35.749Z,2.70
2022-08-17T07:41:08.952Z,2.70
2022-08-17T07:43:38.173Z,2.28
2022-08-17T07:46:53.207Z,2.63
2022-08-17T07:49:36.454Z,2.88
2022-08-17T07:52:47.401Z,3.00
2022-08-17T07:54:58.509Z,2.75
2022-08-17T07:57:35.734Z,2.85
2022-08-17T08:00:03.039Z,2.38
2022-08-17T08:02:43.237Z,2.80
2022-08-17T08:05:44.292Z,2.45
2022-08-17T08:08:45.067Z,2.40
2022-08-17T08:11:15.775Z,3.03
2022-08-17T08:13:45.869Z,2.72
2022-08-17T08:16:24.478Z,2.88
2022-08-17T08:19:01.050Z,3.10
2022-08-17T08:21:47.295Z,2.30
2022-08-17T08:24:22.598Z,3.70
2022-08-17T08:27:38.993Z,2.72
2022-08-17T08:30:19.350Z,2.58
2022-08-17T08:33:10.661Z,3.05
2022-08-17T08:35:53.610Z,3.05
2022-08-17T08:38:47.497Z,2.83
2022-08-17T08:41:47.212Z,2.75
2022-08-17T08:45:00.282Z,3.15
2022-08-17T08:48:06.793Z,3.40
2022-08-17T08:51:02.450Z,2.67
2022-08-17T08:53:44.930Z,2.92
2022-08-17T08:56:35.412Z,3.03
2022-08-17T08:59:08.149Z,2.85
2022-08-17T09:02:03.601Z,2.70
2022-08-17T09:05:13.033Z,2.72
2022-08-17T09:10:35.283Z,2.50
2022-08-17T09:13:22.906Z,3.03
2022-08-17T09:15:59.283Z,2.08
2022-08-17T09:19:02.817Z,2.28
2022-08-17T09:21:38.353Z,2.78
2022-08-17T09:24:40.129Z,2.42
2022-08-17T09:27:13.940Z,2.65
2022-08-17T09:29:49.681Z,2.17
2022-08-17T09:32:38.210Z,3.10
2022-08-17T09:35:20.982Z,2.80
2022-08-17T09:37:53.613Z,1.92
2022-08-17T09:40:29.626Z,2.50
2022-08-17T09:43:16.710Z,2.53
2022-08-17T09:46:04.660Z,2.83
2022-08-17T09:48:42.160Z,2.67
2022-08-17T09:51:25.316Z,2.53
2022-08-17T09:57:29.032Z,2.30
2022-08-17T10:00:12.325Z,2.85
2022-08-17T10:03:21.188Z,2.25
2022-08-17T10:06:21.989Z,2.70
2022-08-17T10:09:10.144Z,2.65
2022-08-17T10:12:03.755Z,2.45
2022-08-17T10:14:43.702Z,2.47
2022-08-17T10:17:32.593Z,2.78
2022-08-17T10:20:22.259Z,3.03
2022-08-17T10:23:18.725Z,2.42
2022-08-17T10:26:11.658Z,2.40
2022-08-17T10:29:06.830Z,2.67
2022-08-17T10:31:56.261Z,2.30
2022-08-17T10:34:41.131Z,3.28
2022-08-17T10:37:55.161Z,2.67
2022-08-17T10:40:49.183Z,2.78
2022-08-17T10:43:37.293Z,3.45
2022-08-17T10:46:36.337Z,2.70
2022-08-17T10:49:18.162Z,2.50
2022-08-17T10:51:54.991Z,2.88
2022-08-17T10:54:24.406Z,3.45
2022-08-17T10:56:57.001Z,3.53
2022-08-17T10:59:35.691Z,3.00
2022-08-17T11:04:57.361Z,2.38
2022-08-17T11:07:32.879Z,2.50
2022-08-17T11:10:08.518Z,2.13
2022-08-17T11:12:44.423Z,2.35
2022-08-17T11:16:04.800Z,2.35
2022-08-17T11:19:35.331Z,2.38
2022-08-17T11:22:48.344Z,2.28
2022-08-17T11:25:22.755Z,2.70
2022-08-17T11:28:05.774Z,2.42
2022-08-17T11:30:44.663Z,2.38
2022-08-17T11:33:30.406Z,2.25
2022-08-17T11:36:25.474Z,2.30
2022-08-17T11:39:20.463Z,2.47
2022-08-17T11:42:01.013Z,2.40
2022-08-17T11:44:52.031Z,2.65
2022-08-17T11:51:19.412Z,2.50
2022-08-17T11:53:46.200Z,2.45
2022-08-17T11:56:49.505Z,2.42
2022-08-17T11:59:35.941Z,2.42
2022-08-17T12:02:35.130Z,1.88
2022-08-17T12:05:14.647Z,2.25
2022-08-17T12:08:08.109Z,2.30
2022-08-17T12:11:00.853Z,2.40
2022-08-17T12:13:38.564Z,2.08
2022-08-17T12:16:10.113Z,2.40
2022-08-17T12:18:42.142Z,2.30
2022-08-17T12:21:17.876Z,1.73
2022-08-17T12:24:23.229Z,1.77
2022-08-17T12:26:56.757Z,2.40
2022-08-17T12:29:38.462Z,2.05
2022-08-17T12:32:07.408Z,2.13
2022-08-17T12:34:40.961Z,2.65
2022-08-17T12:37:20.018Z,2.42
2022-08-17T12:40:10.239Z,2.13
2022-08-17T12:42:39.498Z,2.30
2022-08-17T12:45:29.386Z,1.95
2022-08-17T12:48:07.911Z,2.10
2022-08-17T12:50:41.241Z,1.98
2022-08-17T12:53:23.820Z,2.30
2022-08-17T12:55:52.060Z,2.25
2022-08-17T12:58:33.263Z,2.97
2022-08-17T13:01:11.118Z,2.10
2022-08-17T13:03:49.499Z,2.47
2022-08-17T13:06:34.645Z,2.13
2022-08-17T13:09:33.539Z,2.67
2022-08-17T13:12:07.942Z,2.03
2022-08-17T13:14:35.460Z,2.10
2022-08-17T13:17:08.587Z,2.47
2022-08-17T13:19:50.122Z,2.40
2022-08-17T13:22:23.170Z,2.50
2022-08-17T13:25:09.233Z,2.05
2022-08-17T13:27:36.318Z,2.55
2022-08-17T13:30:12.241Z,2.47
2022-08-17T13:32:47.296Z,2.90
2022-08-17T13:35:39.832Z,2.63
2022-08-17T13:38:39.534Z,2.65
2022-08-17T13:41:07.565Z,2.53
2022-08-17T13:43:50.739Z,3.03
2022-08-17T13:46:31.686Z,2.88
2022-08-17T13:49:04.209Z,1.90
2022-08-17T13:51:43.716Z,2.92
2022-08-17T13:54:36.121Z,2.53
2022-08-17T13:57:07.990Z,3.10
2022-08-17T13:59:54.527Z,2.93
2022-08-17T14:02:28.378Z,2.25
2022-08-17T14:04:56.349Z,2.40
2022-08-17T14:07:36.301Z,2.92
2022-08-17T14:10:23.993Z,2.67
2022-08-17T14:12:51.033Z,2.65
2022-08-17T14:15:22.012Z,2.80
2022-08-17T14:17:49.411Z,2.72
2022-08-17T14:20:20.068Z,2.70
2022-08-17T14:22:53.106Z,2.75
2022-08-17T14:25:27.630Z,2.35
2022-08-17T14:27:55.635Z,2.90
2022-08-17T14:30:26.949Z,2.80
2022-08-17T14:32:58.193Z,2.50
2022-08-17T14:35:28.009Z,2.65
2022-08-17T14:37:55.986Z,2.42
2022-08-17T14:40:25.077Z,2.50
2022-08-17T14:42:53.753Z,2.40
2022-08-17T14:45:30.023Z,2.53
2022-08-17T14:47:59.336Z,2.88
2022-08-17T14:50:27.305Z,3.45
2022-08-17T14:52:56.233Z,2.35
2022-08-17T14:55:25.517Z,2.55
2022-08-17T14:57:52.591Z,3.35
2022-08-17T15:00:19.744Z,2.88
2022-08-17T15:02:50.973Z,2.70
2022-08-17T15:05:17.975Z,2.55
2022-08-17T15:07:44.809Z,2.45
2022-08-17T15:10:14.146Z,2.53
2022-08-17T15:12:42.249Z,2.60
2022-08-17T15:15:12.681Z,2.95
2022-08-17T15:17:44.837Z,2.55
2022-08-17T15:20:19.671Z,3.22
2022-08-17T15:22:55.414Z,2.65
2022-08-17T15:25:25.400Z,3.00
2022-08-17T15:27:52.784Z,2.50
2022-08-17T15:30:20.850Z,2.50
2022-08-17T15:32:54.484Z,3.20
2022-08-17T15:35:27.442Z,2.13
2022-08-17T15:40:41.748Z,2.60
2022-08-17T15:43:23.284Z,2.45
2022-08-17T15:46:02.826Z,2.58
2022-08-17T15:48:43.880Z,2.28
2022-08-17T15:51:24.202Z,2.70
2022-08-17T15:53:58.503Z,3.00
2022-08-17T15:56:27.177Z,2.28
2022-08-17T15:58:57.535Z,2.67
2022-08-17T16:03:13.014Z,2.63
2022-08-17T16:04:30.168Z,2.63
2022-08-17T16:06:58.881Z,2.75
2022-08-17T16:09:25.729Z,2.65
2022-08-17T16:11:53.860Z,2.88
2022-08-17T16:14:23.178Z,2.95
2022-08-17T16:16:51.809Z,2.92
2022-08-17T16:19:18.741Z,2.70
2022-08-17T16:21:45.606Z,2.83
2022-08-17T16:24:13.659Z,2.85
2022-08-17T16:26:42.549Z,2.80
2022-08-17T16:29:09.696Z,2.85
2022-08-17T16:31:37.896Z,2.70
2022-08-17T16:34:17.875Z,2.92
2022-08-17T16:36:55.066Z,2.80
2022-08-17T16:39:26.525Z,2.70
2022-08-17T16:41:53.753Z,2.55
2022-08-17T16:44:22.319Z,2.72
2022-08-17T16:46:50.447Z,2.90
2022-08-17T16:49:36.237Z,2.70
2022-08-17T16:52:10.602Z,3.13
2022-08-17T16:54:43.980Z,2.75
2022-08-17T16:57:17.560Z,2.55
2022-08-17T16:59:48.168Z,2.95
2022-08-17T17:02:29.778Z,2.85
2022-08-17T17:05:07.622Z,3.42
2022-08-17T17:07:49.807Z,2.85
2022-08-17T17:10:23.812Z,3.20
2022-08-17T17:13:02.714Z,3.00
2022-08-17T17:15:57.517Z,3.25
2022-08-17T17:21:20.286Z,3.13
2022-08-17T17:23:59.944Z,3.25
2022-08-17T17:26:58.199Z,2.78
2022-08-17T17:29:47.715Z,2.83
2022-08-17T17:32:24.959Z,3.20
2022-08-17T17:35:01.931Z,2.83
2022-08-17T17:37:34.799Z,2.65
2022-08-17T17:42:35.814Z,2.97
2022-08-17T17:45:07.290Z,2.67
2022-08-17T17:47:35.625Z,3.17
2022-08-17T17:50:05.770Z,2.75
2022-08-17T17:52:57.284Z,2.85
2022-08-17T17:55:54.531Z,3.50
2022-08-17T17:58:49.122Z,2.90
2022-08-17T18:01:44.490Z,3.38
2022-08-17T18:04:31.568Z,3.40
2022-08-17T18:07:23.036Z,3.35
2022-08-17T18:10:29.457Z,3.63
2022-08-17T18:13:08.265Z,3.70
2022-08-17T18:15:51.410Z,3.00
2022-08-17T18:18:18.280Z,4.00
2022-08-17T18:20:54.129Z,2.60
2022-08-17T18:23:27.941Z,3.60
2022-08-17T18:25:58.692Z,3.30
2022-08-17T18:28:38.122Z,2.97
2022-08-17T18:31:18.542Z,3.30
2022-08-17T18:33:52.708Z,3.17
2022-08-17T18:36:36.515Z,3.80
2022-08-17T18:39:16.986Z,3.08
2022-08-17T18:41:48.867Z,3.28
2022-08-17T18:44:42.797Z,3.70
2022-08-17T18:47:26.077Z,3.42
2022-08-17T18:50:25.701Z,2.85
2022-08-17T18:52:55.306Z,3.40
2022-08-17T18:55:28.503Z,3.72
2022-08-17T19:00:30.143Z,3.20
2022-08-17T19:03:07.491Z,2.85
2022-08-17T19:05:46.703Z,2.90
2022-08-17T19:08:30.973Z,3.22
2022-08-17T19:11:28.826Z,3.08
2022-08-17T19:14:06.002Z,3.05
2022-08-17T19:16:46.313Z,3.00
2022-08-17T19:19:53.070Z,2.72
2022-08-17T19:22:30.929Z,2.38
2022-08-17T19:25:12.692Z,3.22
2022-08-17T19:27:57.863Z,2.65
2022-08-17T19:30:25.474Z,3.13
2022-08-17T19:32:53.265Z,2.75
2022-08-17T19:35:22.339Z,3.17
2022-08-17T19:38:12.857Z,2.53
2022-08-17T19:41:46.564Z,2.50
2022-08-17T19:44:29.683Z,3.00
2022-08-17T19:47:30.534Z,2.60
2022-08-17T19:50:14.305Z,3.22
2022-08-17T19:53:08.499Z,2.45
2022-08-17T19:56:21.705Z,2.92
2022-08-17T19:59:01.397Z,3.20
2022-08-17T20:02:21.923Z,3.55
2022-08-17T20:04:51.223Z,3.97
2022-08-17T20:07:28.433Z,2.63
2022-08-17T20:10:05.352Z,3.45
2022-08-17T20:12:39.596Z,3.47
2022-08-17T20:15:24.508Z,3.00
2022-08-17T20:17:52.174Z,2.70
2022-08-17T20:20:24.057Z,3.22
2022-08-17T20:23:18.006Z,3.03
2022-08-17T20:25:58.293Z,2.67
2022-08-17T20:28:30.671Z,2.67
2022-08-17T20:30:58.843Z,2.58
2022-08-17T20:33:36.945Z,3.45
2022-08-17T20:36:24.883Z,3.10
2022-08-17T20:38:57.873Z,3.08
2022-08-17T20:44:06.002Z,3.00
2022-08-17T20:46:38.683Z,3.92
2022-08-17T20:49:11.204Z,4.43
2022-08-17T20:52:01.948Z,4.15
2022-08-17T20:54:41.306Z,3.30
2022-08-17T20:57:14.353Z,4.15
2022-08-17T20:59:45.160Z,3.90
2022-08-17T21:02:21.053Z,4.50
2022-08-17T21:04:50.763Z,5.13
2022-08-17T21:07:43.411Z,3.90
2022-08-17T21:10:21.947Z,3.45
2022-08-17T21:13:08.593Z,4.47
2022-08-17T21:16:28.440Z,4.32
2022-08-17T21:19:19.428Z,4.43
2022-08-17T21:22:08.653Z,3.97
2022-08-17T21:24:55.808Z,4.55
2022-08-17T21:27:38.648Z,4.43
2022-08-17T21:30:06.650Z,5.38
2022-08-17T21:32:40.504Z,4.65
2022-08-17T21:35:11.541Z,4.80
2022-08-17T21:37:44.624Z,5.95
2022-08-17T21:42:52.888Z,4.22
2022-08-17T21:45:40.192Z,4.93
2022-08-17T21:48:24.680Z,4.38
2022-08-17T21:51:02.222Z,4.93
2022-08-17T21:53:38.971Z,5.03
2022-08-17T21:56:08.574Z,4.50
2022-08-17T21:58:41.818Z,4.65
2022-08-17T22:01:31.387Z,4.10
2022-08-17T22:04:15.530Z,4.78
2022-08-17T22:06:54.203Z,4.20
2022-08-17T22:09:35.989Z,5.13
2022-08-17T22:12:24.332Z,4.63
2022-08-17T22:15:01.432Z,4.43
2022-08-17T22:17:46.433Z,3.67
2022-08-17T22:20:20.889Z,5.53
2022-08-17T22:23:09.260Z,5.97
2022-08-17T22:25:56.070Z,4.43
2022-08-17T22:28:53.062Z,5.22
2022-08-17T22:31:29.692Z,4.45
2022-08-17T22:34:01.983Z,4.68
2022-08-17T22:36:37.333Z,5.35
2022-08-17T22:39:10.021Z,5.75
2022-08-17T22:42:00.402Z,4.90
2022-08-17T22:44:37.942Z,4.55
2022-08-17T22:47:31.833Z,5.13
2022-08-17T22:50:06.167Z,5.20
2022-08-17T22:53:02.495Z,5.03
2022-08-17T22:55:52.243Z,4.70
2022-08-17T22:58:42.813Z,4.97
2022-08-17T23:01:33.429Z,4.90
2022-08-17T23:04:06.777Z,4.30
2022-08-17T23:06:37.221Z,4.75
2022-08-17T23:09:07.532Z,4.95
2022-08-17T23:11:49.231Z,4.28
2022-08-17T23:14:20.111Z,4.85
2022-08-17T23:16:53.055Z,5.05
2022-08-17T23:19:21.791Z,5.40
2022-08-17T23:21:50.559Z,4.82
2022-08-17T23:24:25.634Z,4.75
2022-08-17T23:26:53.665Z,5.05
2022-08-17T23:29:21.611Z,5.05
2022-08-17T23:31:50.612Z,5.45
2022-08-17T23:34:18.595Z,4.55
2022-08-17T23:36:53.232Z,5.00
2022-08-17T23:39:24.495Z,4.75
2022-08-17T23:41:59.395Z,4.95
2022-08-17T23:44:28.876Z,5.13
2022-08-17T23:46:56.144Z,4.50
2022-08-17T23:49:25.166Z,4.88
2022-08-17T23:51:54.798Z,5.53
2022-08-17T23:54:35.441Z,5.25
2022-08-17T23:57:04.898Z,5.03
2022-08-17T23:59:33.989Z,5.65
